sensor_id;sensor_type;location;lat;lon;timestamp;pressure;altitude;pressure_sealevel;temperature
50206;BMP280;36098;48.390;10.856;2023-07-28T00:01:51;95440.41;;;24.60
50206;BMP280;36098;48.390;10.856;2023-07-28T00:04:16;95441.06;;;24.52
50206;BMP280;36098;48.390;10.856;2023-07-28T00:06:41;95440.06;;;24.48
50206;BMP280;36098;48.390;10.856;2023-07-28T00:09:07;95443.03;;;24.60
50206;BMP280;36098;48.390;10.856;2023-07-28T00:11:32;95443.97;;;24.51
50206;BMP280;36098;48.390;10.856;2023-07-28T00:13:57;95439.50;;;24.51
50206;BMP280;36098;48.390;10.856;2023-07-28T00:16:22;95442.63;;;24.53
50206;BMP280;36098;48.390;10.856;2023-07-28T00:18:48;95444.59;;;24.61
50206;BMP280;36098;48.390;10.856;2023-07-28T00:21:13;95440.50;;;24.55
50206;BMP280;36098;48.390;10.856;2023-07-28T00:23:38;95433.06;;;24.57
50206;BMP280;36098;48.390;10.856;2023-07-28T00:26:03;95438.44;;;24.52
50206;BMP280;36098;48.390;10.856;2023-07-28T00:28:29;95428.66;;;24.53
50206;BMP280;36098;48.390;10.856;2023-07-28T00:30:54;95433.22;;;24.47
50206;BMP280;36098;48.390;10.856;2023-07-28T00:33:19;95436.34;;;24.49
50206;BMP280;36098;48.390;10.856;2023-07-28T00:35:44;95432.63;;;24.50
50206;BMP280;36098;48.390;10.856;2023-07-28T00:38:10;95442.41;;;24.50
50206;BMP280;36098;48.390;10.856;2023-07-28T00:40:36;95435.78;;;24.52
50206;BMP280;36098;48.390;10.856;2023-07-28T00:43:01;95442.41;;;24.50
50206;BMP280;36098;48.390;10.856;2023-07-28T00:45:27;95436.94;;;24.46
50206;BMP280;36098;48.390;10.856;2023-07-28T00:47:53;95436.00;;;24.56
50206;BMP280;36098;48.390;10.856;2023-07-28T00:50:18;95437.88;;;24.55
50206;BMP280;36098;48.390;10.856;2023-07-28T00:52:44;95441.13;;;24.47
50206;BMP280;36098;48.390;10.856;2023-07-28T00:55:12;95433.06;;;24.57
50206;BMP280;36098;48.390;10.856;2023-07-28T00:57:37;95435.56;;;24.49
50206;BMP280;36098;48.390;10.856;2023-07-28T01:00:05;95430.31;;;24.49
50206;BMP280;36098;48.390;10.856;2023-07-28T01:02:30;95433.81;;;24.44
50206;BMP280;36098;48.390;10.856;2023-07-28T01:04:56;95437.22;;;24.45
50206;BMP280;36098;48.390;10.856;2023-07-28T01:07:44;95439.09;;;24.44
50206;BMP280;36098;48.390;10.856;2023-07-28T01:10:16;95428.53;;;24.44
50206;BMP280;36098;48.390;10.856;2023-07-28T01:12:42;95440.06;;;24.48
50206;BMP280;36098;48.390;10.856;2023-07-28T01:15:07;95431.06;;;24.49
50206;BMP280;36098;48.390;10.856;2023-07-28T01:17:32;95434.78;;;24.48
50206;BMP280;36098;48.390;10.856;2023-07-28T01:19:58;95439.84;;;24.45
50206;BMP280;36098;48.390;10.856;2023-07-28T01:27:45;95431.06;;;24.49
50206;BMP280;36098;48.390;10.856;2023-07-28T01:30:11;95438.69;;;24.51
50206;BMP280;36098;48.390;10.856;2023-07-28T01:32:36;95427.59;;;24.54
50206;BMP280;36098;48.390;10.856;2023-07-28T01:35:03;95428.16;;;24.51
50206;BMP280;36098;48.390;10.856;2023-07-28T01:37:29;95433.94;;;24.53
50206;BMP280;36098;48.390;10.856;2023-07-28T01:39:54;95444.78;;;24.51
50206;BMP280;36098;48.390;10.856;2023-07-28T01:42:19;95435.22;;;24.55
50206;BMP280;36098;48.390;10.856;2023-07-28T01:44:45;95430.50;;;24.52
50206;BMP280;36098;48.390;10.856;2023-07-28T01:47:10;95427.97;;;24.61
50206;BMP280;36098;48.390;10.856;2023-07-28T01:49:35;95418.38;;;24.51
50206;BMP280;36098;48.390;10.856;2023-07-28T01:52:00;95430.13;;;24.59
50206;BMP280;36098;48.390;10.856;2023-07-28T01:54:26;95426.22;;;24.56
50206;BMP280;36098;48.390;10.856;2023-07-28T01:56:51;95429.94;;;24.55
50206;BMP280;36098;48.390;10.856;2023-07-28T01:59:16;95429.50;;;24.48
50206;BMP280;36098;48.390;10.856;2023-07-28T02:01:42;95423.00;;;24.59
50206;BMP280;36098;48.390;10.856;2023-07-28T02:04:08;95418.88;;;24.53
50206;BMP280;36098;48.390;10.856;2023-07-28T02:06:33;95427.97;;;24.61
50206;BMP280;36098;48.390;10.856;2023-07-28T02:08:58;95431.50;;;24.56
50206;BMP280;36098;48.390;10.856;2023-07-28T02:11:23;95435.03;;;24.52
50206;BMP280;36098;48.390;10.856;2023-07-28T02:13:49;95429.75;;;24.52
50206;BMP280;36098;48.390;10.856;2023-07-28T02:16:15;95435.56;;;24.49
50206;BMP280;36098;48.390;10.856;2023-07-28T02:18:40;95433.25;;;24.61
50206;BMP280;36098;48.390;10.856;2023-07-28T02:21:08;95432.00;;;24.58
50206;BMP280;36098;48.390;10.856;2023-07-28T02:23:33;95426.03;;;24.66
50206;BMP280;36098;48.390;10.856;2023-07-28T02:25:58;95434.03;;;24.61
50206;BMP280;36098;48.390;10.856;2023-07-28T02:28:24;95431.09;;;24.63
50206;BMP280;36098;48.390;10.856;2023-07-28T02:30:49;95419.66;;;24.54
50206;BMP280;36098;48.390;10.856;2023-07-28T02:33:14;95412.53;;;24.54
50206;BMP280;36098;48.390;10.856;2023-07-28T02:35:39;95423.94;;;24.50
50206;BMP280;36098;48.390;10.856;2023-07-28T02:38:04;95415.22;;;24.49
50206;BMP280;36098;48.390;10.856;2023-07-28T02:40:32;95423.66;;;24.51
50206;BMP280;36098;48.390;10.856;2023-07-28T02:42:57;95415.75;;;24.51
50206;BMP280;36098;48.390;10.856;2023-07-28T02:45:23;95413.41;;;24.63
50206;BMP280;36098;48.390;10.856;2023-07-28T02:47:50;95418.81;;;24.58
50206;BMP280;36098;48.390;10.856;2023-07-28T02:50:15;95422.19;;;24.59
50206;BMP280;36098;48.390;10.856;2023-07-28T02:52:40;95417.78;;;24.54
50206;BMP280;36098;48.390;10.856;2023-07-28T02:55:06;95417.31;;;24.52
50206;BMP280;36098;48.390;10.856;2023-07-28T02:57:31;95421.72;;;24.57
50206;BMP280;36098;48.390;10.856;2023-07-28T02:59:56;95426.63;;;24.63
50206;BMP280;36098;48.390;10.856;2023-07-28T03:02:22;95428.16;;;24.51
50206;BMP280;36098;48.390;10.856;2023-07-28T03:04:47;95428.88;;;24.56
50206;BMP280;36098;48.390;10.856;2023-07-28T03:07:12;95413.78;;;24.43
50206;BMP280;36098;48.390;10.856;2023-07-28T03:09:38;95412.91;;;24.48
50206;BMP280;36098;48.390;10.856;2023-07-28T03:12:03;95427.00;;;24.57
50206;BMP280;36098;48.390;10.856;2023-07-28T03:14:31;95436.19;;;24.59
50206;BMP280;36098;48.390;10.856;2023-07-28T03:16:57;95442.41;;;24.50
50206;BMP280;36098;48.390;10.856;2023-07-28T03:19:22;95431.31;;;24.53
50206;BMP280;36098;48.390;10.856;2023-07-28T03:21:47;95435.03;;;24.52
50206;BMP280;36098;48.390;10.856;2023-07-28T03:24:12;95441.63;;;24.49
50206;BMP280;36098;48.390;10.856;2023-07-28T03:26:38;95429.63;;;24.57
50206;BMP280;36098;48.390;10.856;2023-07-28T03:29:03;95434.22;;;24.51
50206;BMP280;36098;48.390;10.856;2023-07-28T03:31:28;95437.03;;;24.41
50206;BMP280;36098;48.390;10.856;2023-07-28T03:33:54;95447.75;;;24.45
50206;BMP280;36098;48.390;10.856;2023-07-28T03:36:19;95450.22;;;24.41
50206;BMP280;36098;48.390;10.856;2023-07-28T03:38:44;95447.13;;;24.53
50206;BMP280;36098;48.390;10.856;2023-07-28T03:41:10;95447.88;;;24.40
50206;BMP280;36098;48.390;10.856;2023-07-28T03:43:35;95448.47;;;24.50
50206;BMP280;36098;48.390;10.856;2023-07-28T03:46:00;95442.94;;;24.52
50206;BMP280;36098;48.390;10.856;2023-07-28T03:48:25;95445.13;;;24.45
50206;BMP280;36098;48.390;10.856;2023-07-28T03:50:51;95445.13;;;24.45
50206;BMP280;36098;48.390;10.856;2023-07-28T03:53:16;95456.97;;;24.47
50206;BMP280;36098;48.390;10.856;2023-07-28T03:55:41;95451.22;;;24.45
50206;BMP280;36098;48.390;10.856;2023-07-28T03:58:06;95456.00;;;24.43
50206;BMP280;36098;48.390;10.856;2023-07-28T04:00:32;95456.00;;;24.43
50206;BMP280;36098;48.390;10.856;2023-07-28T04:02:58;95471.34;;;24.41
50206;BMP280;36098;48.390;10.856;2023-07-28T04:05:23;95468.38;;;24.43
50206;BMP280;36098;48.390;10.856;2023-07-28T04:07:48;95461.28;;;24.43
50206;BMP280;36098;48.390;10.856;2023-07-28T04:10:13;95455.03;;;24.39
50206;BMP280;36098;48.390;10.856;2023-07-28T04:12:39;95460.91;;;24.50
50206;BMP280;36098;48.390;10.856;2023-07-28T04:15:04;95478.28;;;24.37
50206;BMP280;36098;48.390;10.856;2023-07-28T04:17:30;95479.72;;;24.30
50206;BMP280;36098;48.390;10.856;2023-07-28T04:19:55;95473.88;;;24.33
50206;BMP280;36098;48.390;10.856;2023-07-28T04:22:20;95476.78;;;24.31
50206;BMP280;36098;48.390;10.856;2023-07-28T04:24:47;95471.91;;;24.38
50206;BMP280;36098;48.390;10.856;2023-07-28T04:27:13;95474.25;;;24.26
50206;BMP280;36098;48.390;10.856;2023-07-28T04:29:38;95481.06;;;24.27
50206;BMP280;36098;48.390;10.856;2023-07-28T04:32:04;95481.38;;;24.26
50206;BMP280;36098;48.390;10.856;2023-07-28T04:34:29;95481.16;;;24.22
50206;BMP280;36098;48.390;10.856;2023-07-28T04:36:54;95486.53;;;24.17
50206;BMP280;36098;48.390;10.856;2023-07-28T04:39:19;95484.56;;;24.23
50206;BMP280;36098;48.390;10.856;2023-07-28T04:41:45;95481.88;;;24.28
50206;BMP280;36098;48.390;10.856;2023-07-28T04:44:10;95485.88;;;24.25
50206;BMP280;36098;48.390;10.856;2023-07-28T04:46:36;95489.09;;;24.22
50206;BMP280;36098;48.390;10.856;2023-07-28T04:49:01;95481.25;;;24.17
50206;BMP280;36098;48.390;10.856;2023-07-28T04:51:27;95494.16;;;24.19
50206;BMP280;36098;48.390;10.856;2023-07-28T04:53:53;95492.59;;;24.18
50206;BMP280;36098;48.390;10.856;2023-07-28T04:56:18;95494.47;;;23.99
50206;BMP280;36098;48.390;10.856;2023-07-28T04:58:43;95483.72;;;23.95
50206;BMP280;36098;48.390;10.856;2023-07-28T05:01:08;95483.88;;;23.85
50206;BMP280;36098;48.390;10.856;2023-07-28T05:03:34;95488.88;;;23.87
50206;BMP280;36098;48.390;10.856;2023-07-28T05:05:59;95499.03;;;23.93
50206;BMP280;36098;48.390;10.856;2023-07-28T05:08:24;95504.81;;;23.95
50206;BMP280;36098;48.390;10.856;2023-07-28T05:10:50;95497.81;;;24.04
50206;BMP280;36098;48.390;10.856;2023-07-28T05:13:15;95487.19;;;24.09
50206;BMP280;36098;48.390;10.856;2023-07-28T05:15:40;95489.91;;;24.04
50206;BMP280;36098;48.390;10.856;2023-07-28T05:18:05;95495.19;;;24.04
50206;BMP280;36098;48.390;10.856;2023-07-28T05:20:31;95488.78;;;24.24
50206;BMP280;36098;48.390;10.856;2023-07-28T05:22:56;95490.31;;;24.11
50206;BMP280;36098;48.390;10.856;2023-07-28T05:25:21;95493.16;;;24.15
50206;BMP280;36098;48.390;10.856;2023-07-28T05:27:47;95498.25;;;24.25
50206;BMP280;36098;48.390;10.856;2023-07-28T05:30:12;95490.41;;;24.06
50206;BMP280;36098;48.390;10.856;2023-07-28T05:32:38;95492.47;;;24.09
50206;BMP280;36098;48.390;10.856;2023-07-28T05:35:03;95494.00;;;24.29
50206;BMP280;36098;48.390;10.856;2023-07-28T05:37:29;95492.03;;;24.34
50206;BMP280;36098;48.390;10.856;2023-07-28T05:39:54;95496.41;;;24.25
50206;BMP280;36098;48.390;10.856;2023-07-28T05:42:19;95494.00;;;24.29
50206;BMP280;36098;48.390;10.856;2023-07-28T05:44:45;95493.28;;;24.23
50206;BMP280;36098;48.390;10.856;2023-07-28T05:47:10;95503.13;;;24.18
50206;BMP280;36098;48.390;10.856;2023-07-28T05:49:35;95499.28;;;24.10
50206;BMP280;36098;48.390;10.856;2023-07-28T05:52:01;95500.16;;;24.38
50206;BMP280;36098;48.390;10.856;2023-07-28T05:54:26;95507.75;;;24.26
50206;BMP280;36098;48.390;10.856;2023-07-28T05:56:51;95503.25;;;24.26
50206;BMP280;36098;48.390;10.856;2023-07-28T05:59:17;95507.47;;;24.27
50206;BMP280;36098;48.390;10.856;2023-07-28T06:01:42;95506.47;;;24.23
50206;BMP280;36098;48.390;10.856;2023-07-28T06:04:07;95504.13;;;24.22
50206;BMP280;36098;48.390;10.856;2023-07-28T06:06:32;95507.06;;;24.20
50206;BMP280;36098;48.390;10.856;2023-07-28T06:08:58;95506.75;;;24.22
50206;BMP280;36098;48.390;10.856;2023-07-28T06:11:23;95508.50;;;24.13
50206;BMP280;36098;48.390;10.856;2023-07-28T06:13:48;95502.03;;;24.05
50206;BMP280;36098;48.390;10.856;2023-07-28T06:16:14;95504.16;;;24.03
50206;BMP280;36098;48.390;10.856;2023-07-28T06:18:39;95509.47;;;24.17
50206;BMP280;36098;48.390;10.856;2023-07-28T06:21:05;95512.81;;;24.22
50206;BMP280;36098;48.390;10.856;2023-07-28T06:23:30;95508.44;;;24.31
50206;BMP280;36098;48.390;10.856;2023-07-28T06:25:55;95512.81;;;24.22
50206;BMP280;36098;48.390;10.856;2023-07-28T06:28:21;95508.00;;;24.11
50206;BMP280;36098;48.390;10.856;2023-07-28T06:30:46;95506.72;;;24.08
50206;BMP280;36098;48.390;10.856;2023-07-28T06:33:12;95516.63;;;24.16
50206;BMP280;36098;48.390;10.856;2023-07-28T06:35:37;95525.19;;;24.08
50206;BMP280;36098;48.390;10.856;2023-07-28T06:38:03;95514.63;;;24.08
50206;BMP280;36098;48.390;10.856;2023-07-28T06:40:28;95518.69;;;24.01
50206;BMP280;36098;48.390;10.856;2023-07-28T06:42:53;95514.81;;;23.98
50206;BMP280;36098;48.390;10.856;2023-07-28T06:45:20;95528.47;;;24.00
50206;BMP280;36098;48.390;10.856;2023-07-28T06:47:45;95530.63;;;23.98
50206;BMP280;36098;48.390;10.856;2023-07-28T06:50:11;95534.34;;;23.97
50206;BMP280;36098;48.390;10.856;2023-07-28T06:52:37;95533.03;;;23.95
50206;BMP280;36098;48.390;10.856;2023-07-28T06:55:02;95533.63;;;23.92
50206;BMP280;36098;48.390;10.856;2023-07-28T06:57:28;95534.81;;;23.99
50206;BMP280;36098;48.390;10.856;2023-07-28T06:59:54;95542.00;;;24.12
50206;BMP280;36098;48.390;10.856;2023-07-28T07:02:19;95539.66;;;24.11
50206;BMP280;36098;48.390;10.856;2023-07-28T07:04:44;95540.72;;;24.10
50206;BMP280;36098;48.390;10.856;2023-07-28T07:07:09;95542.28;;;24.11
50206;BMP280;36098;48.390;10.856;2023-07-28T07:09:35;95547.06;;;24.09
50206;BMP280;36098;48.390;10.856;2023-07-28T07:12:01;95540.41;;;24.11
50206;BMP280;36098;48.390;10.856;2023-07-28T07:14:26;95544.13;;;24.10
50206;BMP280;36098;48.390;10.856;2023-07-28T07:16:51;95541.81;;;24.09
50206;BMP280;36098;48.390;10.856;2023-07-28T07:19:17;95543.63;;;24.08
50206;BMP280;36098;48.390;10.856;2023-07-28T07:21:42;95541.00;;;24.08
50206;BMP280;36098;48.390;10.856;2023-07-28T07:24:09;95547.84;;;24.09
50206;BMP280;36098;48.390;10.856;2023-07-28T07:26:35;95550.22;;;24.11
50206;BMP280;36098;48.390;10.856;2023-07-28T07:29:00;95552.34;;;24.09
50206;BMP280;36098;48.390;10.856;2023-07-28T07:31:25;95547.06;;;24.09
50206;BMP280;36098;48.390;10.856;2023-07-28T07:33:51;95559.19;;;24.10
50206;BMP280;36098;48.390;10.856;2023-07-28T07:36:17;95554.69;;;24.10
50206;BMP280;36098;48.390;10.856;2023-07-28T07:38:43;95544.44;;;24.09
50206;BMP280;36098;48.390;10.856;2023-07-28T07:41:12;95557.91;;;24.07
50206;BMP280;36098;48.390;10.856;2023-07-28T07:43:38;95558.41;;;24.09
50206;BMP280;36098;48.390;10.856;2023-07-28T07:46:03;95565.22;;;24.10
50206;BMP280;36098;48.390;10.856;2023-07-28T07:48:28;95565.22;;;24.10
50206;BMP280;36098;48.390;10.856;2023-07-28T07:50:54;95559.19;;;24.10
50206;BMP280;36098;48.390;10.856;2023-07-28T07:53:19;95559.19;;;24.10
50206;BMP280;36098;48.390;10.856;2023-07-28T07:55:45;95566.81;;;24.11
50206;BMP280;36098;48.390;10.856;2023-07-28T07:58:10;95564.16;;;24.11
50206;BMP280;36098;48.390;10.856;2023-07-28T08:00:37;95566.81;;;24.11
50206;BMP280;36098;48.390;10.856;2023-07-28T08:03:03;95567.78;;;24.15
50206;BMP280;36098;48.390;10.856;2023-07-28T08:05:29;95568.81;;;24.19
50206;BMP280;36098;48.390;10.856;2023-07-28T08:07:55;95564.88;;;24.17
50206;BMP280;36098;48.390;10.856;2023-07-28T08:10:20;95564.09;;;24.16
50206;BMP280;36098;48.390;10.856;2023-07-28T08:12:45;95555.13;;;24.17
50206;BMP280;36098;48.390;10.856;2023-07-28T08:15:12;95566.09;;;24.24
50206;BMP280;36098;48.390;10.856;2023-07-28T08:17:38;95564.50;;;24.23
50206;BMP280;36098;48.390;10.856;2023-07-28T08:20:04;95569.00;;;24.23
50206;BMP280;36098;48.390;10.856;2023-07-28T08:22:30;95571.63;;;24.23
50206;BMP280;36098;48.390;10.856;2023-07-28T08:24:55;95566.84;;;24.25
50206;BMP280;36098;48.390;10.856;2023-07-28T08:27:21;95566.16;;;24.19
50206;BMP280;36098;48.390;10.856;2023-07-28T08:29:46;95576.13;;;24.22
50206;BMP280;36098;48.390;10.856;2023-07-28T08:32:11;95568.44;;;24.26
50206;BMP280;36098;48.390;10.856;2023-07-28T08:34:36;95572.91;;;24.25
50206;BMP280;36098;48.390;10.856;2023-07-28T08:37:02;95573.50;;;24.22
50206;BMP280;36098;48.390;10.856;2023-07-28T08:39:27;95569.69;;;24.28
50206;BMP280;36098;48.390;10.856;2023-07-28T08:42:00;95571.97;;;24.35
50206;BMP280;36098;48.390;10.856;2023-07-28T08:44:25;95578.69;;;24.27
50206;BMP280;36098;48.390;10.856;2023-07-28T08:46:51;95588.66;;;24.30
50206;BMP280;36098;48.390;10.856;2023-07-28T08:49:16;95569.22;;;24.26
50206;BMP280;36098;48.390;10.856;2023-07-28T08:51:42;95575.84;;;24.24
50206;BMP280;36098;48.390;10.856;2023-07-28T08:54:07;95569.22;;;24.26
50206;BMP280;36098;48.390;10.856;2023-07-28T08:56:33;95568.53;;;24.34
50206;BMP280;36098;48.390;10.856;2023-07-28T08:58:59;95572.91;;;24.25
50206;BMP280;36098;48.390;10.856;2023-07-28T09:01:25;95572.66;;;24.27
50206;BMP280;36098;48.390;10.856;2023-07-28T09:03:50;95568.63;;;24.29
50206;BMP280;36098;48.390;10.856;2023-07-28T09:06:15;95576.06;;;24.27
50206;BMP280;36098;48.390;10.856;2023-07-28T09:08:43;95570.41;;;24.34
50206;BMP280;36098;48.390;10.856;2023-07-28T09:11:08;95570.91;;;24.36
50206;BMP280;36098;48.390;10.856;2023-07-28T09:13:40;95582.75;;;24.38
50206;BMP280;36098;48.390;10.856;2023-07-28T09:16:18;95580.78;;;24.44
50206;BMP280;36098;48.390;10.856;2023-07-28T09:18:44;95576.41;;;24.39
50206;BMP280;36098;48.390;10.856;2023-07-28T09:21:19;95572.78;;;24.35
50206;BMP280;36098;48.390;10.856;2023-07-28T09:23:47;95583.31;;;24.35
50206;BMP280;36098;48.390;10.856;2023-07-28T09:26:13;95580.88;;;24.57
50206;BMP280;36098;48.390;10.856;2023-07-28T09:28:39;95571.25;;;24.48
50206;BMP280;36098;48.390;10.856;2023-07-28T09:31:05;95569.25;;;24.40
50206;BMP280;36098;48.390;10.856;2023-07-28T09:33:35;95576.72;;;24.83
50206;BMP280;36098;48.390;10.856;2023-07-28T09:36:12;95568.66;;;25.20
50206;BMP280;36098;48.390;10.856;2023-07-28T09:38:39;95571.56;;;25.32
50206;BMP280;36098;48.390;10.856;2023-07-28T09:41:07;95578.03;;;25.53
50206;BMP280;36098;48.390;10.856;2023-07-28T09:43:35;95572.56;;;25.36
50206;BMP280;36098;48.390;10.856;2023-07-28T09:46:03;95574.47;;;24.90
50206;BMP280;36098;48.390;10.856;2023-07-28T09:48:30;95579.72;;;24.63
50206;BMP280;36098;48.390;10.856;2023-07-28T09:50:57;95568.91;;;24.92
50206;BMP280;36098;48.390;10.856;2023-07-28T09:53:26;95578.88;;;25.08
50206;BMP280;36098;48.390;10.856;2023-07-28T09:55:53;95566.84;;;24.75
50206;BMP280;36098;48.390;10.856;2023-07-28T09:58:19;95566.16;;;24.97
50206;BMP280;36098;48.390;10.856;2023-07-28T10:00:46;95578.00;;;24.86
50206;BMP280;36098;48.390;10.856;2023-07-28T10:03:12;95569.63;;;25.24
50206;BMP280;36098;48.390;10.856;2023-07-28T10:05:38;95575.19;;;24.64
50206;BMP280;36098;48.390;10.856;2023-07-28T10:08:04;95588.34;;;24.18
50206;BMP280;36098;48.390;10.856;2023-07-28T10:10:30;95588.47;;;24.27
50206;BMP280;36098;48.390;10.856;2023-07-28T10:12:57;95581.47;;;24.36
50206;BMP280;36098;48.390;10.856;2023-07-28T10:15:30;95590.28;;;24.63
50206;BMP280;36098;48.390;10.856;2023-07-28T10:17:57;95592.91;;;24.45
50206;BMP280;36098;48.390;10.856;2023-07-28T10:23:13;95594.81;;;24.76
50206;BMP280;36098;48.390;10.856;2023-07-28T10:25:40;95590.38;;;24.72
50206;BMP280;36098;48.390;10.856;2023-07-28T10:28:07;95598.31;;;24.72
50206;BMP280;36098;48.390;10.856;2023-07-28T10:30:50;95606.59;;;24.65
50206;BMP280;36098;48.390;10.856;2023-07-28T10:33:36;95602.00;;;24.57
50206;BMP280;36098;48.390;10.856;2023-07-28T10:39:14;95605.31;;;24.63
50206;BMP280;36098;48.390;10.856;2023-07-28T10:42:02;95607.59;;;24.51
50206;BMP280;36098;48.390;10.856;2023-07-28T10:44:28;95606.19;;;24.58
50206;BMP280;36098;48.390;10.856;2023-07-28T10:46:54;95609.59;;;24.59
50206;BMP280;36098;48.390;10.856;2023-07-28T10:49:19;95611.97;;;24.42
50206;BMP280;36098;48.390;10.856;2023-07-28T10:51:45;95621.31;;;24.34
50206;BMP280;36098;48.390;10.856;2023-07-28T10:54:10;95615.88;;;24.63
50206;BMP280;36098;48.390;10.856;2023-07-28T10:56:40;95616.06;;;24.53
50206;BMP280;36098;48.390;10.856;2023-07-28T10:59:05;95616.38;;;24.46
50206;BMP280;36098;48.390;10.856;2023-07-28T11:01:34;95615.50;;;24.37
50206;BMP280;36098;48.390;10.856;2023-07-28T11:04:14;95608.47;;;24.46
50206;BMP280;36098;48.390;10.856;2023-07-28T11:06:49;95608.34;;;24.56
50206;BMP280;36098;48.390;10.856;2023-07-28T11:09:21;95609.00;;;24.80
50206;BMP280;36098;48.390;10.856;2023-07-28T11:11:47;95618.22;;;24.64
50206;BMP280;36098;48.390;10.856;2023-07-28T11:14:15;95615.00;;;24.35
50206;BMP280;36098;48.390;10.856;2023-07-28T11:16:41;95614.53;;;24.65
50206;BMP280;36098;48.390;10.856;2023-07-28T11:19:08;95605.75;;;24.70
50206;BMP280;36098;48.390;10.856;2023-07-28T11:21:41;95610.69;;;25.03
50206;BMP280;36098;48.390;10.856;2023-07-28T11:24:07;95615.25;;;24.84
50206;BMP280;36098;48.390;10.856;2023-07-28T11:26:36;95616.28;;;24.56
50206;BMP280;36098;48.390;10.856;2023-07-28T11:29:03;95606.00;;;24.36
50206;BMP280;36098;48.390;10.856;2023-07-28T11:31:29;95607.28;;;24.57
50206;BMP280;36098;48.390;10.856;2023-07-28T11:33:54;95608.97;;;24.48
50206;BMP280;36098;48.390;10.856;2023-07-28T11:36:24;95607.28;;;24.57
50206;BMP280;36098;48.390;10.856;2023-07-28T11:38:51;95606.09;;;24.63
50206;BMP280;36098;48.390;10.856;2023-07-28T11:41:17;95604.75;;;24.66
50206;BMP280;36098;48.390;10.856;2023-07-28T11:43:42;95606.00;;;24.68
50206;BMP280;36098;48.390;10.856;2023-07-28T11:46:49;95609.69;;;24.54
50206;BMP280;36098;48.390;10.856;2023-07-28T11:49:19;95606.81;;;24.50
50206;BMP280;36098;48.390;10.856;2023-07-28T11:51:49;95617.91;;;24.52
50206;BMP280;36098;48.390;10.856;2023-07-28T11:54:16;95613.41;;;24.53
50206;BMP280;36098;48.390;10.856;2023-07-28T11:56:43;95604.13;;;24.55
50206;BMP280;36098;48.390;10.856;2023-07-28T11:59:09;95609.75;;;24.81
50206;BMP280;36098;48.390;10.856;2023-07-28T12:01:35;95603.97;;;24.79
50206;BMP280;36098;48.390;10.856;2023-07-28T12:04:19;95597.97;;;25.05
50206;BMP280;36098;48.390;10.856;2023-07-28T12:09:25;95604.44;;;24.99
50206;BMP280;36098;48.390;10.856;2023-07-28T12:11:51;95603.72;;;24.80
50206;BMP280;36098;48.390;10.856;2023-07-28T12:14:30;95605.78;;;25.10
50206;BMP280;36098;48.390;10.856;2023-07-28T12:16:55;95605.06;;;25.23
50206;BMP280;36098;48.390;10.856;2023-07-28T12:19:21;95609.09;;;24.75
50206;BMP280;36098;48.390;10.856;2023-07-28T12:21:46;95607.75;;;25.05
50206;BMP280;36098;48.390;10.856;2023-07-28T12:24:11;95602.53;;;24.86
50206;BMP280;36098;48.390;10.856;2023-07-28T12:26:37;95601.88;;;24.94
50206;BMP280;36098;48.390;10.856;2023-07-28T12:29:02;95604.44;;;24.99
50206;BMP280;36098;48.390;10.856;2023-07-28T12:31:28;95605.00;;;24.96
50206;BMP280;36098;48.390;10.856;2023-07-28T12:33:53;95599.63;;;25.01
50206;BMP280;36098;48.390;10.856;2023-07-28T12:36:18;95605.38;;;24.90
50206;BMP280;36098;48.390;10.856;2023-07-28T12:38:43;95598.69;;;24.79
50206;BMP280;36098;48.390;10.856;2023-07-28T12:41:09;95600.84;;;24.77
50206;BMP280;36098;48.390;10.856;2023-07-28T12:43:34;95598.59;;;24.70
50206;BMP280;36098;48.390;10.856;2023-07-28T12:45:59;95598.00;;;24.73
50206;BMP280;36098;48.390;10.856;2023-07-28T12:48:25;95603.00;;;24.75
50206;BMP280;36098;48.390;10.856;2023-07-28T12:50:50;95605.88;;;25.05
50206;BMP280;36098;48.390;10.856;2023-07-28T12:53:16;95601.34;;;24.92
50206;BMP280;36098;48.390;10.856;2023-07-28T12:55:41;95602.84;;;24.85
50206;BMP280;36098;48.390;10.856;2023-07-28T12:58:06;95609.44;;;25.14
50206;BMP280;36098;48.390;10.856;2023-07-28T13:00:32;95607.09;;;25.39
50206;BMP280;36098;48.390;10.856;2023-07-28T13:02:57;95615.41;;;25.33
50206;BMP280;36098;48.390;10.856;2023-07-28T13:05:22;95605.97;;;25.81
50206;BMP280;36098;48.390;10.856;2023-07-28T13:07:48;95617.03;;;25.83
50206;BMP280;36098;48.390;10.856;2023-07-28T13:10:13;95623.63;;;25.85
50206;BMP280;36098;48.390;10.856;2023-07-28T13:12:38;95638.03;;;25.93
50206;BMP280;36098;48.390;10.856;2023-07-28T13:15:04;95655.94;;;25.96
50206;BMP280;36098;48.390;10.856;2023-07-28T13:17:30;95657.75;;;26.09
50206;BMP280;36098;48.390;10.856;2023-07-28T13:19:56;95663.97;;;26.04
50206;BMP280;36098;48.390;10.856;2023-07-28T13:22:24;95664.16;;;25.94
50206;BMP280;36098;48.390;10.856;2023-07-28T13:24:52;95664.25;;;26.03
50206;BMP280;36098;48.390;10.856;2023-07-28T13:27:17;95655.56;;;26.02
50206;BMP280;36098;48.390;10.856;2023-07-28T13:29:42;95660.31;;;26.00
50206;BMP280;36098;48.390;10.856;2023-07-28T13:32:37;95646.13;;;25.96
50206;BMP280;36098;48.390;10.856;2023-07-28T13:35:02;95644.56;;;25.95
50206;BMP280;36098;48.390;10.856;2023-07-28T13:37:28;95659.94;;;26.07
50206;BMP280;36098;48.390;10.856;2023-07-28T13:39:53;95652.91;;;25.89
50206;BMP280;36098;48.390;10.856;2023-07-28T13:42:19;95656.81;;;26.05
50206;BMP280;36098;48.390;10.856;2023-07-28T13:44:44;95651.16;;;25.84
50206;BMP280;36098;48.390;10.856;2023-07-28T13:47:09;95650.63;;;25.82
50206;BMP280;36098;48.390;10.856;2023-07-28T13:49:34;95650.66;;;25.96
50206;BMP280;36098;48.390;10.856;2023-07-28T13:52:02;95662.00;;;25.96
50206;BMP280;36098;48.390;10.856;2023-07-28T13:54:28;95655.25;;;25.90
50206;BMP280;36098;48.390;10.856;2023-07-28T13:56:53;95658.69;;;25.91
50206;BMP280;36098;48.390;10.856;2023-07-28T13:59:18;95654.19;;;25.91
50206;BMP280;36098;48.390;10.856;2023-07-28T14:01:43;95650.94;;;25.81
50206;BMP280;36098;48.390;10.856;2023-07-28T14:04:09;95654.94;;;25.78
50206;BMP280;36098;48.390;10.856;2023-07-28T14:06:34;95655.06;;;25.87